Terminal Aerodrome Forecast
Issued by NWS

Home | Current Version | Previous Version | Text Only | Print | Product List | Glossary On
Versions: 1 2 3 4 5 6 7 8 9 10 11 12 13 14 15 16 17 18 19 20 21 22 23 24 25 26 27 28 29 30 31 32 33 34 35 36 37 38 39 40 41 42 43 44 45 46 47 48 49 50
894
FTUS42 KRAH 101733
TAFRWI
TAF
KRWI 101733Z 1018/1118 22011G21KT P6SM SCT020
     FM102300 32011KT 4SM -RA BR BKN020
     FM110500 34008G14KT 5SM -RA BR OVC012
     FM111000 34010KT 5SM -RA BR BKN009 OVC012
     FM111600 36010KT P6SM SCT025=

USA.gov is the U.S. government's official web portal to all federal, state and local government web resources and services.